createdAt,value
2023-05-14T00:01:07.659Z,77.77
2023-05-14T00:03:35.078Z,78.04
2023-05-14T00:06:02.683Z,78.06
2023-05-14T00:08:29.428Z,78.61
2023-05-14T00:10:56.262Z,79.22
2023-05-14T00:13:25.457Z,80.00
2023-05-14T00:15:52.356Z,81.03
2023-05-14T00:18:19.252Z,80.55
2023-05-14T00:20:45.985Z,80.67
2023-05-14T00:23:12.930Z,79.88
2023-05-14T00:25:39.879Z,79.05
2023-05-14T00:28:06.817Z,78.99
2023-05-14T00:30:34.475Z,79.48
2023-05-14T00:33:01.460Z,79.93
2023-05-14T00:35:28.497Z,80.62
2023-05-14T00:37:55.421Z,79.77
2023-05-14T00:40:26.039Z,80.72
2023-05-14T00:42:54.429Z,81.62
2023-05-14T00:45:21.787Z,81.50
2023-05-14T00:47:49.181Z,81.39
2023-05-14T00:50:17.410Z,80.56
2023-05-14T00:52:44.566Z,81.19
2023-05-14T00:55:15.955Z,80.52
2023-05-14T00:57:43.366Z,79.74
2023-05-14T01:00:10.613Z,78.84
2023-05-14T01:02:38.053Z,78.24
2023-05-14T01:05:06.313Z,77.69
2023-05-14T01:07:52.860Z,77.70
2023-05-14T01:10:28.296Z,78.42
2023-05-14T01:13:04.360Z,78.72
2023-05-14T01:15:34.678Z,78.82
2023-05-14T01:18:06.109Z,78.93
2023-05-14T01:20:33.191Z,79.62
2023-05-14T01:23:00.122Z,80.05
2023-05-14T01:25:27.280Z,79.56
2023-05-14T01:27:54.009Z,79.89
2023-05-14T01:30:31.816Z,81.19
2023-05-14T01:33:02.796Z,81.05
2023-05-14T01:35:30.509Z,81.12
2023-05-14T01:38:01.077Z,79.96
2023-05-14T01:40:29.310Z,79.70
2023-05-14T01:42:57.022Z,80.41
2023-05-14T01:45:24.226Z,80.02
2023-05-14T01:47:52.202Z,80.25
2023-05-14T01:50:19.236Z,80.81
2023-05-14T01:52:47.719Z,81.81
2023-05-14T01:55:15.291Z,82.56
2023-05-14T01:57:42.118Z,83.07
2023-05-14T02:00:09.479Z,82.39
2023-05-14T02:02:42.337Z,82.19
2023-05-14T02:05:11.148Z,84.03
2023-05-14T02:07:38.806Z,84.10
2023-05-14T02:10:06.584Z,84.29
2023-05-14T02:12:33.943Z,83.98
2023-05-14T02:15:00.970Z,83.66
2023-05-14T02:17:28.182Z,83.53
2023-05-14T02:19:55.177Z,84.38
2023-05-14T02:22:22.025Z,83.42
2023-05-14T02:24:50.904Z,83.69
2023-05-14T02:27:18.288Z,83.48
2023-05-14T02:29:45.209Z,83.88
2023-05-14T02:32:12.112Z,82.85
2023-05-14T02:34:39.413Z,83.13
2023-05-14T02:37:06.558Z,83.06
2023-05-14T02:39:33.615Z,83.01
2023-05-14T02:42:00.747Z,82.75
2023-05-14T02:44:27.792Z,82.85
2023-05-14T02:46:54.769Z,83.45
2023-05-14T02:49:21.892Z,82.79
2023-05-14T02:51:48.727Z,81.88
2023-05-14T02:54:16.312Z,81.51
2023-05-14T02:56:43.344Z,81.18
2023-05-14T02:59:10.292Z,82.97
2023-05-14T03:01:37.536Z,82.51
2023-05-14T03:04:05.003Z,81.83
2023-05-14T03:06:32.045Z,81.02
2023-05-14T03:08:58.882Z,80.90
2023-05-14T03:11:25.943Z,80.34
2023-05-14T03:13:52.769Z,80.28
2023-05-14T03:16:19.648Z,79.34
2023-05-14T03:18:46.483Z,80.06
2023-05-14T03:21:13.810Z,79.00
2023-05-14T03:23:40.652Z,77.95
2023-05-14T03:26:07.815Z,77.04
2023-05-14T03:28:34.850Z,75.59
2023-05-14T03:31:01.892Z,74.41
2023-05-14T03:33:30.676Z,72.93
2023-05-14T03:35:57.753Z,71.12
2023-05-14T03:38:24.571Z,69.60
2023-05-14T03:40:51.410Z,68.76
2023-05-14T03:43:18.376Z,67.44
2023-05-14T03:45:45.733Z,67.22
2023-05-14T03:48:12.625Z,64.95
2023-05-14T03:50:39.708Z,64.51
2023-05-14T03:53:07.777Z,63.05
2023-05-14T03:55:34.619Z,62.24
2023-05-14T03:58:02.189Z,61.54
2023-05-14T04:00:29.233Z,59.56
2023-05-14T04:02:56.232Z,58.10
2023-05-14T04:05:23.425Z,57.52
2023-05-14T04:07:52.006Z,58.47
2023-05-14T04:10:20.382Z,56.40
2023-05-14T04:12:47.225Z,55.86
2023-05-14T04:15:14.283Z,53.78
2023-05-14T04:17:41.367Z,53.78
2023-05-14T04:20:09.182Z,53.74
2023-05-14T04:22:36.031Z,51.93
2023-05-14T04:25:02.871Z,50.68
2023-05-14T04:27:29.710Z,51.30
2023-05-14T04:29:56.552Z,49.35
2023-05-14T04:32:24.138Z,48.35
2023-05-14T04:34:51.468Z,47.40
2023-05-14T04:37:18.205Z,47.03
2023-05-14T04:39:45.045Z,46.29
2023-05-14T04:42:12.488Z,45.42
2023-05-14T04:44:39.550Z,44.00
2023-05-14T04:47:06.594Z,43.57
2023-05-14T04:49:33.455Z,42.86
2023-05-14T04:52:01.210Z,41.79
2023-05-14T04:54:28.204Z,40.86
2023-05-14T04:56:55.398Z,40.68
2023-05-14T04:59:22.243Z,40.75
2023-05-14T05:01:49.459Z,38.66
2023-05-14T05:04:16.574Z,38.53
2023-05-14T05:06:43.484Z,39.02
2023-05-14T05:09:10.336Z,38.61
2023-05-14T05:11:38.404Z,38.42
2023-05-14T05:14:05.145Z,36.67
2023-05-14T05:16:32.102Z,35.58
2023-05-14T05:18:59.048Z,34.49
2023-05-14T05:21:26.098Z,33.38
2023-05-14T05:23:52.923Z,32.02
2023-05-14T05:26:22.040Z,32.07
2023-05-14T05:28:49.438Z,30.88
2023-05-14T05:31:18.253Z,30.32
2023-05-14T05:33:47.781Z,30.60
2023-05-14T05:36:14.812Z,28.99
2023-05-14T05:38:41.656Z,28.91
2023-05-14T05:41:08.503Z,30.36
2023-05-14T05:43:35.341Z,30.22
2023-05-14T05:46:02.238Z,29.05
2023-05-14T05:48:29.226Z,28.35
2023-05-14T05:50:56.077Z,28.80
2023-05-14T05:53:23.013Z,27.66
2023-05-14T05:55:51.187Z,27.82
2023-05-14T05:58:18.856Z,26.88
2023-05-14T06:00:46.815Z,26.95
2023-05-14T06:03:14.157Z,27.61
2023-05-14T06:05:41.065Z,27.08
2023-05-14T06:08:08.064Z,26.86
2023-05-14T06:10:35.826Z,25.93
2023-05-14T06:13:02.772Z,25.89
2023-05-14T06:15:29.921Z,27.01
2023-05-14T06:17:57.138Z,28.53
2023-05-14T06:20:24.215Z,27.77
2023-05-14T06:22:51.469Z,27.93
2023-05-14T06:25:18.734Z,27.00
2023-05-14T06:27:45.579Z,28.07
2023-05-14T06:30:13.151Z,27.34
2023-05-14T06:32:40.140Z,26.71
2023-05-14T06:35:07.834Z,28.34
2023-05-14T06:37:34.986Z,27.51
2023-05-14T06:40:01.824Z,28.59
2023-05-14T06:42:28.667Z,28.39
2023-05-14T06:44:55.935Z,29.05
2023-05-14T06:47:22.816Z,29.77
2023-05-14T06:49:49.883Z,30.07
2023-05-14T06:52:17.539Z,29.63
2023-05-14T06:54:44.519Z,29.45
2023-05-14T06:57:11.260Z,30.35
2023-05-14T06:59:38.010Z,31.91
2023-05-14T07:02:05.599Z,30.42
2023-05-14T07:04:33.202Z,30.60
2023-05-14T07:07:00.315Z,30.85
2023-05-14T07:09:27.208Z,31.00
2023-05-14T07:11:54.215Z,30.82
2023-05-14T07:14:21.409Z,32.47
2023-05-14T07:16:48.265Z,32.84
2023-05-14T07:19:15.657Z,33.26
2023-05-14T07:21:42.568Z,32.10
2023-05-14T07:24:09.492Z,33.59
2023-05-14T07:26:36.338Z,35.65
2023-05-14T07:29:03.190Z,36.22
2023-05-14T07:31:30.050Z,35.29
2023-05-14T07:33:57.369Z,34.87
2023-05-14T07:36:24.828Z,35.27
2023-05-14T07:38:52.079Z,34.21
2023-05-14T07:41:18.819Z,33.81
2023-05-14T07:43:45.666Z,34.03
2023-05-14T07:46:12.528Z,32.06
2023-05-14T07:48:39.570Z,34.35
2023-05-14T07:51:06.509Z,31.92
2023-05-14T07:53:33.441Z,32.31
2023-05-14T07:56:00.695Z,31.65
2023-05-14T07:58:28.459Z,31.56
2023-05-14T08:00:56.127Z,32.41
2023-05-14T08:03:23.133Z,29.88
2023-05-14T08:05:51.954Z,31.58
2023-05-14T08:08:18.996Z,31.20
2023-05-14T08:10:45.869Z,31.51
2023-05-14T08:13:12.689Z,33.64
2023-05-14T08:15:40.654Z,32.36
2023-05-14T08:18:07.718Z,32.31
2023-05-14T08:20:34.954Z,31.40
2023-05-14T08:23:01.910Z,34.02
2023-05-14T08:25:29.256Z,34.99
2023-05-14T08:27:56.302Z,33.69
2023-05-14T08:30:23.562Z,34.68
2023-05-14T08:32:51.045Z,33.78
2023-05-14T08:35:18.673Z,33.54
2023-05-14T08:37:45.617Z,34.26
2023-05-14T08:40:12.775Z,33.80
2023-05-14T08:42:44.218Z,34.27
2023-05-14T08:45:17.713Z,31.28
2023-05-14T08:47:52.484Z,31.97
2023-05-14T08:50:22.725Z,30.19
2023-05-14T08:52:51.151Z,28.72
2023-05-14T08:55:18.598Z,27.96
2023-05-14T08:57:46.052Z,27.25
2023-05-14T09:00:15.004Z,27.05
2023-05-14T09:02:44.445Z,26.24
2023-05-14T09:05:12.010Z,26.31
2023-05-14T09:07:38.967Z,26.62
2023-05-14T09:10:08.372Z,26.19
2023-05-14T09:12:35.399Z,26.62
2023-05-14T09:15:03.515Z,26.44
2023-05-14T09:17:30.652Z,26.50
2023-05-14T09:19:58.188Z,27.08
2023-05-14T09:22:31.473Z,27.32
2023-05-14T09:25:06.120Z,26.84
2023-05-14T09:27:33.564Z,26.45
2023-05-14T09:30:09.245Z,26.42
2023-05-14T09:32:37.802Z,25.79
2023-05-14T09:35:22.964Z,25.78
2023-05-14T09:37:52.488Z,27.17
2023-05-14T09:40:21.720Z,26.60
2023-05-14T09:42:49.426Z,26.72
2023-05-14T09:45:17.012Z,26.83
2023-05-14T09:47:44.502Z,26.94
2023-05-14T09:50:11.793Z,26.97
2023-05-14T09:52:38.856Z,26.93
2023-05-14T09:55:06.559Z,27.30
2023-05-14T09:57:34.099Z,27.83
2023-05-14T10:00:00.826Z,26.57
2023-05-14T10:02:37.028Z,26.72
2023-05-14T10:05:06.433Z,26.75
2023-05-14T10:07:38.682Z,26.89
2023-05-14T10:10:08.474Z,26.22
2023-05-14T10:12:40.107Z,26.80
2023-05-14T10:15:18.822Z,26.54
2023-05-14T10:17:49.711Z,27.09
2023-05-14T10:20:17.219Z,27.15
2023-05-14T10:22:44.178Z,26.53
2023-05-14T10:25:11.528Z,26.55
2023-05-14T10:27:39.279Z,26.19
2023-05-14T10:30:13.946Z,26.65
2023-05-14T10:32:41.537Z,25.84
2023-05-14T10:35:28.891Z,26.60
2023-05-14T10:37:56.350Z,26.80
2023-05-14T10:40:24.541Z,27.19
2023-05-14T10:42:52.902Z,26.73
2023-05-14T10:45:19.738Z,27.31
2023-05-14T10:47:46.963Z,27.12
2023-05-14T10:50:15.479Z,27.69
2023-05-14T10:52:44.462Z,27.09
2023-05-14T10:55:16.378Z,27.15
2023-05-14T10:57:45.478Z,27.32
2023-05-14T11:00:14.665Z,27.17
2023-05-14T11:02:43.950Z,27.25
2023-05-14T11:05:16.668Z,27.23
2023-05-14T11:07:48.413Z,27.26
2023-05-14T11:10:18.229Z,27.62
2023-05-14T11:12:50.478Z,27.79
2023-05-14T11:15:19.602Z,27.76
2023-05-14T11:17:48.468Z,27.27
2023-05-14T11:20:18.945Z,27.63
2023-05-14T11:22:48.599Z,27.41
2023-05-14T11:25:16.450Z,27.30
2023-05-14T11:27:44.676Z,26.97
2023-05-14T11:30:13.919Z,27.35
2023-05-14T11:32:41.390Z,27.69
2023-05-14T11:35:08.813Z,27.79
2023-05-14T11:37:35.771Z,28.07
2023-05-14T11:40:09.377Z,27.48
2023-05-14T11:42:36.728Z,27.45
2023-05-14T11:45:04.701Z,28.03
2023-05-14T11:47:31.538Z,28.11
2023-05-14T11:50:00.302Z,28.67
2023-05-14T11:52:27.181Z,28.41
2023-05-14T11:54:54.032Z,28.15
2023-05-14T11:57:22.180Z,28.10
2023-05-14T11:59:58.187Z,28.00
2023-05-14T12:02:29.956Z,28.29
2023-05-14T12:04:57.306Z,27.49
2023-05-14T12:07:29.027Z,27.96
2023-05-14T12:10:00.962Z,27.99
2023-05-14T12:12:27.716Z,28.53
2023-05-14T12:14:54.636Z,28.46
2023-05-14T12:17:22.962Z,28.47
2023-05-14T12:19:53.443Z,28.62
2023-05-14T12:22:22.532Z,28.70
2023-05-14T12:24:57.165Z,28.28
2023-05-14T12:27:29.139Z,28.17
2023-05-14T12:30:19.851Z,28.12
2023-05-14T12:32:51.018Z,28.23
2023-05-14T12:35:18.561Z,27.94
2023-05-14T12:37:45.602Z,27.80
2023-05-14T12:40:13.526Z,27.65
2023-05-14T12:42:41.192Z,27.94
2023-05-14T12:45:09.170Z,28.31
2023-05-14T12:47:37.188Z,28.92
2023-05-14T12:50:05.437Z,28.97
2023-05-14T12:52:38.487Z,29.10
2023-05-14T12:55:09.738Z,28.24
2023-05-14T12:57:38.140Z,28.91
2023-05-14T13:00:07.664Z,28.72
2023-05-14T13:02:42.863Z,28.45
2023-05-14T13:05:11.497Z,28.36
2023-05-14T13:07:38.974Z,28.38
2023-05-14T13:10:06.477Z,29.05
2023-05-14T13:12:33.724Z,27.92
2023-05-14T13:15:00.481Z,28.15
2023-05-14T13:17:27.683Z,28.12
2023-05-14T13:19:54.566Z,28.23
2023-05-14T13:22:21.404Z,27.94
2023-05-14T13:24:48.243Z,28.41
2023-05-14T13:27:15.206Z,27.85
2023-05-14T13:29:42.033Z,27.90
2023-05-14T13:32:09.079Z,28.34
2023-05-14T13:34:36.021Z,28.31
2023-05-14T13:37:03.375Z,28.41
2023-05-14T13:39:30.425Z,28.60
2023-05-14T13:41:57.366Z,28.95
2023-05-14T13:44:24.384Z,28.70
2023-05-14T13:46:51.948Z,28.85
2023-05-14T13:49:19.023Z,28.90
2023-05-14T13:51:45.764Z,28.78
2023-05-14T13:54:12.714Z,29.09
2023-05-14T13:56:39.785Z,29.10
2023-05-14T13:59:06.901Z,29.27
2023-05-14T14:01:33.802Z,29.40
2023-05-14T14:04:00.692Z,29.45
2023-05-14T14:06:27.493Z,29.73
2023-05-14T14:08:54.454Z,29.93
2023-05-14T14:11:21.538Z,29.35
2023-05-14T14:13:48.795Z,29.44
2023-05-14T14:16:15.870Z,29.85
2023-05-14T14:18:42.928Z,29.88
2023-05-14T14:21:10.123Z,29.88
2023-05-14T14:23:37.040Z,29.63
2023-05-14T14:26:03.993Z,29.90
2023-05-14T14:28:32.191Z,29.46
2023-05-14T14:30:59.037Z,29.84
2023-05-14T14:33:26.618Z,30.08
2023-05-14T14:35:53.573Z,29.94
2023-05-14T14:38:20.579Z,29.86
2023-05-14T14:40:47.630Z,30.01
2023-05-14T14:43:14.384Z,29.95
2023-05-14T14:45:42.348Z,30.21
2023-05-14T14:48:33.452Z,29.98
2023-05-14T14:51:01.118Z,30.05
2023-05-14T14:53:27.951Z,29.85
2023-05-14T14:55:55.131Z,29.77
2023-05-14T14:58:22.568Z,29.68
2023-05-14T15:00:52.223Z,29.77
2023-05-14T15:03:19.735Z,30.18
2023-05-14T15:05:47.386Z,30.37
2023-05-14T15:08:15.151Z,30.63
2023-05-14T15:10:42.217Z,30.91
2023-05-14T15:13:09.141Z,31.30
2023-05-14T15:15:36.937Z,31.18
2023-05-14T15:18:04.741Z,31.05
2023-05-14T15:20:31.725Z,31.01
2023-05-14T15:22:58.561Z,30.91
2023-05-14T15:25:26.723Z,31.02
2023-05-14T15:27:53.900Z,30.74
2023-05-14T15:30:20.741Z,30.73
2023-05-14T15:32:47.624Z,30.84
2023-05-14T15:35:14.820Z,30.77
2023-05-14T15:37:44.020Z,31.07
2023-05-14T15:40:11.802Z,30.82
2023-05-14T15:42:43.438Z,30.75
2023-05-14T15:45:12.754Z,30.81
2023-05-14T15:47:43.687Z,31.09
2023-05-14T15:50:11.335Z,31.19
2023-05-14T15:52:39.200Z,31.25
2023-05-14T15:55:06.866Z,31.26
2023-05-14T15:57:34.542Z,31.35
2023-05-14T16:00:03.634Z,31.48
2023-05-14T16:02:32.801Z,31.45
2023-05-14T16:04:59.654Z,31.40
2023-05-14T16:07:26.604Z,31.33
2023-05-14T16:09:53.342Z,31.59
2023-05-14T16:12:20.386Z,31.85
2023-05-14T16:14:47.138Z,31.74
2023-05-14T16:17:14.097Z,31.57
2023-05-14T16:19:41.124Z,31.83
2023-05-14T16:22:08.369Z,32.09
2023-05-14T16:24:35.829Z,32.43
2023-05-14T16:27:03.283Z,32.87
2023-05-14T16:29:30.744Z,33.12
2023-05-14T16:31:58.010Z,33.21
2023-05-14T16:34:24.938Z,33.19
2023-05-14T16:36:51.692Z,33.46
2023-05-14T16:39:18.628Z,33.57
2023-05-14T16:41:45.661Z,33.97
2023-05-14T16:44:12.521Z,34.15
2023-05-14T16:46:39.718Z,34.20
2023-05-14T16:49:06.602Z,34.80
2023-05-14T16:51:33.552Z,34.76
2023-05-14T16:54:00.509Z,35.88
2023-05-14T16:56:27.540Z,36.12
2023-05-14T16:58:54.472Z,36.96
2023-05-14T17:01:21.350Z,37.05
2023-05-14T17:03:48.162Z,36.97
2023-05-14T17:06:14.903Z,37.14
2023-05-14T17:08:41.844Z,37.52
2023-05-14T17:11:08.694Z,38.13
2023-05-14T17:13:54.067Z,38.86
2023-05-14T17:16:21.482Z,39.39
2023-05-14T17:18:57.113Z,39.67
2023-05-14T17:21:24.111Z,39.86
2023-05-14T17:23:51.171Z,39.74
2023-05-14T17:26:18.003Z,40.38
2023-05-14T17:28:44.956Z,40.99
2023-05-14T17:31:11.781Z,40.86
2023-05-14T17:33:38.890Z,41.32
2023-05-14T17:36:06.597Z,41.78
2023-05-14T17:38:34.157Z,42.72
2023-05-14T17:41:00.968Z,43.17
2023-05-14T17:43:29.076Z,43.41
2023-05-14T17:45:56.010Z,44.30
2023-05-14T17:48:23.571Z,46.25
2023-05-14T17:50:51.466Z,48.16
2023-05-14T17:53:18.498Z,48.02
2023-05-14T17:55:45.548Z,49.61
2023-05-14T17:58:14.928Z,47.83
2023-05-14T18:00:42.971Z,48.10
2023-05-14T18:03:10.121Z,48.65
2023-05-14T18:05:37.188Z,48.80
2023-05-14T18:08:04.469Z,50.06
2023-05-14T18:10:31.425Z,52.36
2023-05-14T18:12:58.687Z,52.76
2023-05-14T18:15:26.721Z,53.43
2023-05-14T18:17:53.831Z,52.59
2023-05-14T18:20:20.734Z,52.67
2023-05-14T18:22:47.991Z,52.59
2023-05-14T18:25:15.242Z,52.28
2023-05-14T18:27:45.209Z,52.74
2023-05-14T18:30:14.249Z,53.13
2023-05-14T18:32:43.386Z,52.64
2023-05-14T18:35:11.126Z,53.66
2023-05-14T18:37:38.156Z,52.84
2023-05-14T18:40:06.448Z,53.30
2023-05-14T18:42:34.109Z,53.51
2023-05-14T18:45:01.233Z,54.80
2023-05-14T18:47:28.951Z,54.25
2023-05-14T18:49:58.629Z,55.34
2023-05-14T18:52:26.291Z,55.24
2023-05-14T18:54:54.525Z,55.01
2023-05-14T18:57:21.917Z,54.67
2023-05-14T18:59:48.749Z,54.40
2023-05-14T19:02:15.880Z,55.08
2023-05-14T19:04:51.611Z,55.68
2023-05-14T19:07:20.340Z,55.70
2023-05-14T19:09:47.479Z,56.33
2023-05-14T19:12:14.945Z,56.19
2023-05-14T19:14:41.989Z,56.25
2023-05-14T19:17:08.933Z,55.95
2023-05-14T19:19:36.074Z,56.07
2023-05-14T19:22:02.917Z,56.71
2023-05-14T19:24:29.865Z,56.40
2023-05-14T19:26:56.607Z,56.84
2023-05-14T19:29:23.544Z,57.01
2023-05-14T19:31:50.637Z,56.67
2023-05-14T19:34:17.481Z,55.62
2023-05-14T19:36:44.384Z,54.99
2023-05-14T19:39:11.233Z,54.78
2023-05-14T19:41:38.067Z,55.22
2023-05-14T19:44:05.015Z,54.75
2023-05-14T19:46:32.002Z,55.31
2023-05-14T19:48:58.902Z,54.88
2023-05-14T19:51:25.844Z,54.78
2023-05-14T19:53:52.684Z,54.21
2023-05-14T19:56:19.536Z,54.46
2023-05-14T19:58:46.472Z,53.88
2023-05-14T20:01:13.944Z,53.79
2023-05-14T20:03:40.876Z,54.00
2023-05-14T20:06:07.930Z,53.98
2023-05-14T20:08:35.080Z,54.57
2023-05-14T20:11:02.739Z,55.00
2023-05-14T20:13:31.524Z,54.90
2023-05-14T20:15:59.292Z,55.88
2023-05-14T20:18:27.140Z,55.97
2023-05-14T20:20:54.408Z,54.95
2023-05-14T20:23:21.355Z,55.67
2023-05-14T20:25:48.199Z,55.53
2023-05-14T20:28:15.030Z,55.54
2023-05-14T20:30:41.891Z,56.54
2023-05-14T20:33:08.803Z,56.00
2023-05-14T20:35:35.764Z,56.14
2023-05-14T20:38:03.324Z,56.10
2023-05-14T20:40:32.137Z,55.78
2023-05-14T20:42:59.261Z,56.74
2023-05-14T20:45:26.365Z,56.33
2023-05-14T20:47:53.492Z,56.29
2023-05-14T20:50:22.077Z,55.97
2023-05-14T20:52:48.886Z,56.10
2023-05-14T20:55:16.064Z,56.15
2023-05-14T20:57:43.616Z,56.06
2023-05-14T21:00:11.456Z,56.61
2023-05-14T21:02:38.477Z,56.79
2023-05-14T21:05:06.575Z,57.43
2023-05-14T21:07:33.417Z,57.02
2023-05-14T21:10:01.390Z,57.62
2023-05-14T21:12:28.225Z,57.65
2023-05-14T21:14:55.076Z,57.58
2023-05-14T21:17:21.966Z,57.56
2023-05-14T21:19:48.765Z,57.15
2023-05-14T21:22:15.499Z,56.81
2023-05-14T21:24:42.342Z,56.30
2023-05-14T21:27:09.180Z,55.79
2023-05-14T21:29:35.922Z,55.16
2023-05-14T21:32:02.809Z,54.87
2023-05-14T21:34:31.214Z,54.45
2023-05-14T21:36:58.906Z,54.11
2023-05-14T21:39:25.760Z,53.71
2023-05-14T21:41:52.584Z,53.26
2023-05-14T21:44:19.533Z,53.01
2023-05-14T21:46:46.989Z,52.82
2023-05-14T21:49:13.828Z,52.49
2023-05-14T21:51:40.673Z,52.11
2023-05-14T21:54:07.629Z,51.73
2023-05-14T21:56:35.380Z,51.64
2023-05-14T21:59:02.530Z,51.42
2023-05-14T22:01:29.498Z,51.48
2023-05-14T22:03:57.925Z,51.15
2023-05-14T22:06:25.942Z,51.08
2023-05-14T22:08:53.074Z,50.96
2023-05-14T22:11:20.124Z,50.76
2023-05-14T22:13:47.164Z,50.50
2023-05-14T22:16:14.401Z,50.43
2023-05-14T22:18:42.100Z,50.10
2023-05-14T22:21:09.124Z,50.11
2023-05-14T22:23:36.276Z,50.19
2023-05-14T22:26:04.045Z,50.38
2023-05-14T22:28:33.573Z,50.16
2023-05-14T22:31:00.441Z,50.01
2023-05-14T22:33:27.339Z,49.93
2023-05-14T22:35:54.072Z,49.94
2023-05-14T22:38:20.816Z,49.93
2023-05-14T22:40:47.655Z,49.83
2023-05-14T22:43:14.495Z,49.81
2023-05-14T22:45:41.340Z,50.07
2023-05-14T22:48:08.530Z,50.38
2023-05-14T22:50:36.664Z,50.48
2023-05-14T22:53:03.511Z,51.12
2023-05-14T22:55:30.448Z,51.07
2023-05-14T22:57:57.194Z,51.47
2023-05-14T23:00:24.853Z,51.53
2023-05-14T23:02:51.837Z,51.10
2023-05-14T23:05:18.946Z,50.78
2023-05-14T23:07:45.790Z,50.70
2023-05-14T23:10:12.633Z,51.19
2023-05-14T23:12:39.472Z,50.91
2023-05-14T23:15:06.828Z,51.74
2023-05-14T23:17:33.716Z,51.61
2023-05-14T23:20:00.627Z,52.07
2023-05-14T23:22:27.456Z,52.14
2023-05-14T23:24:54.297Z,52.33
2023-05-14T23:27:21.656Z,52.01
2023-05-14T23:29:48.492Z,52.23
2023-05-14T23:32:15.315Z,52.72
2023-05-14T23:34:42.281Z,53.78
2023-05-14T23:37:09.223Z,52.98
2023-05-14T23:39:36.270Z,52.87
2023-05-14T23:42:03.213Z,53.12
2023-05-14T23:44:30.159Z,53.16
2023-05-14T23:46:57.173Z,53.23
2023-05-14T23:49:24.054Z,53.70
2023-05-14T23:51:50.820Z,53.97
2023-05-14T23:54:17.517Z,54.72
2023-05-14T23:56:44.372Z,55.62
2023-05-14T23:59:11.516Z,55.92
